SBRJSBST

Guest
Details From SBRJ - Santos-Dumont
To SBST - BASE AEREA DE SANTOS
Flight Number -
Tags generated
Created
Modified
Stats Distance 183 nm / 339 km
Max Altitude 18,500 ft / 5,639 m
Waypoints 4
Social Downloads 3
Likes 0
Share VATSIM

Download

Looking for another format? Having issues loading an existing format? Contact us
Advertisement - Login to hide

Notes

Basic altitude profile: - Ascent Rate: 2000ft/min - Ascent Speed: 350kts - Cruise Altitude: 2200000ft - Cruise Speed: 430kts - Descent Rate: 1800ft/min - Descent Speed: 350kts Options: - Use NATs: yes - Use PACOTS: yes - Use low airways: yes - Use high airways: no

Route

SBRJ BOTOM G678 USABA SBST

ID Type Via Altitude Latitude Longitude Leg Dist Tot Dist Heading (true) Name
O SBRJ APT - 0 ft / 0 m -22.91046˚ -43.16313˚ - 0 nm - Santos-Dumont
BOTOM FIX - 18,500 ft / 5,639 m -23.27833˚ -44.06867˚ 54 nm 54 nm 246° / 246° -
USABA FIX G678 (AWY-LO) 14,400 ft / 4,389 m -23.52967˚ -45.05083˚ 56 nm 110 nm 254° / 255° -
O SBST APT - 0 ft / 0 m -23.92520˚ -46.28750˚ 72 nm 182 nm 250° / 251° BASE AEREA DE SANTOS

Altitude Profile

Advertisement - Login to hide

Weather


0- 5 10 15 20 25 30 35+ Temperature / ° C

Clouds and Precipitation
Forecast for 2017-12-14 18:00 UTC. Updated 24 minutes ago

Ground ~20,000 ft ~40,000 ft Winds

SBRJ

Details ICAO SBRJ (SDU)
Name Santos-Dumont
Region Brazil
Timezone Unknown (UTC+0.0)
Stats Elevation 11 ft / 3 m (AMSL)
Location -22.910460° -43.163133°
Runways 2
Magnetic Variation 22.782° W

METAR

SBRJ 141700Z 16012KT 9999 FEW025 SCT070 30/19 Q1014

Decode

TAF

TAF SBRJ 140800Z 1412/1424 14007KT 9999 SCT030 TX30/1417Z TN25/1423Z TEMPO 1414/1417 15015KT BECMG 1422/1424 CAVOK RMK PGX

Decode

Departure Runways

ID Width Length Bearing (true) Bearing (mag) Surface Threshold Offset Overrun Length
02L 98 ft / 30 m 4,154 ft / 1,266 m 358.02° 20.80° Asphalt 0 ft / 0 m 80 ft / 24 m
02R 138 ft / 42 m 4,361 ft / 1,329 m 358.01° 20.79° Asphalt 0 ft / 0 m 80 ft / 24 m
20L 138 ft / 42 m 4,361 ft / 1,329 m 178.01° 200.79° Asphalt 0 ft / 0 m 80 ft / 24 m
20R 98 ft / 30 m 4,154 ft / 1,266 m 178.02° 200.80° Asphalt 0 ft / 0 m 95 ft / 29 m

SBST

Details ICAO SBST (SSZ)
Name BASE AEREA DE SANTOS
Region Brazil
Timezone America/Sao_Paulo (UTC-2.0)
Stats Elevation 10 ft / 3 m (AMSL)
Location -23.925204° -46.287498°
Runways 1
Magnetic Variation 21.405° W

METAR

SBST 141700Z 14006KT 9999 BKN027 27/21 Q1015

Decode

TAF

Not found

Destination Runways

ID Width Length Bearing (true) Bearing (mag) Surface Threshold Offset Overrun Length
17 148 ft / 45 m 4,574 ft / 1,394 m 148.78° 170.19° Asphalt 0 ft / 0 m 0 ft / 0 m
35 148 ft / 45 m 4,574 ft / 1,394 m 328.78° 350.19° Asphalt 0 ft / 0 m 0 ft / 0 m

Popular Alternatives